sensor_id;sensor_type;location;lat;lon;timestamp;temperature;humidity
47590;DHT22;33316;52.298;9.056;2023-07-20T00:00:10;18.80;77.00
47590;DHT22;33316;52.298;9.056;2023-07-20T00:02:44;18.80;77.20
47590;DHT22;33316;52.298;9.056;2023-07-20T00:05:13;18.70;77.30
47590;DHT22;33316;52.298;9.056;2023-07-20T00:07:39;18.70;78.30
47590;DHT22;33316;52.298;9.056;2023-07-20T00:10:08;18.70;77.80
47590;DHT22;33316;52.298;9.056;2023-07-20T00:12:35;18.60;77.80
47590;DHT22;33316;52.298;9.056;2023-07-20T00:15:02;18.60;77.70
47590;DHT22;33316;52.298;9.056;2023-07-20T00:17:33;18.60;78.00
47590;DHT22;33316;52.298;9.056;2023-07-20T00:20:03;18.50;78.20
47590;DHT22;33316;52.298;9.056;2023-07-20T00:22:31;18.50;78.40
47590;DHT22;33316;52.298;9.056;2023-07-20T00:24:57;18.50;78.60
47590;DHT22;33316;52.298;9.056;2023-07-20T00:27:28;18.50;78.60
47590;DHT22;33316;52.298;9.056;2023-07-20T00:29:55;18.50;78.80
47590;DHT22;33316;52.298;9.056;2023-07-20T00:32:24;18.40;78.80
47590;DHT22;33316;52.298;9.056;2023-07-20T00:34:51;18.40;78.90
47590;DHT22;33316;52.298;9.056;2023-07-20T00:37:17;18.40;78.90
47590;DHT22;33316;52.298;9.056;2023-07-20T00:39:44;18.40;79.10
47590;DHT22;33316;52.298;9.056;2023-07-20T00:42:14;18.30;79.00
47590;DHT22;33316;52.298;9.056;2023-07-20T00:44:42;18.30;79.10
47590;DHT22;33316;52.298;9.056;2023-07-20T00:47:12;18.30;79.20
47590;DHT22;33316;52.298;9.056;2023-07-20T00:49:41;18.30;79.30
47590;DHT22;33316;52.298;9.056;2023-07-20T00:52:10;18.30;79.30
47590;DHT22;33316;52.298;9.056;2023-07-20T00:54:40;18.30;79.30
47590;DHT22;33316;52.298;9.056;2023-07-20T00:57:07;18.30;79.40
47590;DHT22;33316;52.298;9.056;2023-07-20T00:59:34;18.30;79.50
47590;DHT22;33316;52.298;9.056;2023-07-20T01:02:03;18.30;79.50
47590;DHT22;33316;52.298;9.056;2023-07-20T01:04:30;18.30;79.60
47590;DHT22;33316;52.298;9.056;2023-07-20T01:07:01;18.30;79.70
47590;DHT22;33316;52.298;9.056;2023-07-20T01:09:37;18.30;79.90
47590;DHT22;33316;52.298;9.056;2023-07-20T01:12:09;18.30;80.00
47590;DHT22;33316;52.298;9.056;2023-07-20T01:14:39;18.30;80.00
47590;DHT22;33316;52.298;9.056;2023-07-20T01:17:07;18.30;80.00
47590;DHT22;33316;52.298;9.056;2023-07-20T01:19:41;18.30;80.10
47590;DHT22;33316;52.298;9.056;2023-07-20T01:22:21;18.30;80.10
47590;DHT22;33316;52.298;9.056;2023-07-20T01:25:07;18.30;81.10
47590;DHT22;33316;52.298;9.056;2023-07-20T01:31:21;18.30;80.30
47590;DHT22;33316;52.298;9.056;2023-07-20T01:33:49;18.30;80.10
47590;DHT22;33316;52.298;9.056;2023-07-20T01:36:18;18.30;80.10
47590;DHT22;33316;52.298;9.056;2023-07-20T01:38:47;18.20;80.10
47590;DHT22;33316;52.298;9.056;2023-07-20T01:41:14;18.20;80.10
47590;DHT22;33316;52.298;9.056;2023-07-20T01:43:42;18.30;80.30
47590;DHT22;33316;52.298;9.056;2023-07-20T01:46:09;18.20;80.20
47590;DHT22;33316;52.298;9.056;2023-07-20T01:48:37;18.20;80.30
47590;DHT22;33316;52.298;9.056;2023-07-20T01:51:04;18.20;80.40
47590;DHT22;33316;52.298;9.056;2023-07-20T01:53:30;18.20;80.50
47590;DHT22;33316;52.298;9.056;2023-07-20T01:55:57;18.20;80.60
47590;DHT22;33316;52.298;9.056;2023-07-20T01:58:24;18.20;80.70
47590;DHT22;33316;52.298;9.056;2023-07-20T02:00:51;18.20;80.70
47590;DHT22;33316;52.298;9.056;2023-07-20T02:03:17;18.20;80.70
47590;DHT22;33316;52.298;9.056;2023-07-20T02:05:45;18.20;80.80
47590;DHT22;33316;52.298;9.056;2023-07-20T02:08:12;18.20;80.80
47590;DHT22;33316;52.298;9.056;2023-07-20T02:10:39;18.20;81.00
47590;DHT22;33316;52.298;9.056;2023-07-20T02:13:05;18.20;81.00
47590;DHT22;33316;52.298;9.056;2023-07-20T02:15:32;18.20;81.00
47590;DHT22;33316;52.298;9.056;2023-07-20T02:17:59;18.20;81.00
47590;DHT22;33316;52.298;9.056;2023-07-20T02:20:26;18.20;81.00
47590;DHT22;33316;52.298;9.056;2023-07-20T02:22:54;18.20;81.00
47590;DHT22;33316;52.298;9.056;2023-07-20T02:25:21;18.20;81.10
47590;DHT22;33316;52.298;9.056;2023-07-20T02:27:48;18.20;81.00
47590;DHT22;33316;52.298;9.056;2023-07-20T02:30:14;18.10;80.80
47590;DHT22;33316;52.298;9.056;2023-07-20T02:32:43;18.10;81.00
47590;DHT22;33316;52.298;9.056;2023-07-20T02:35:11;18.10;81.00
47590;DHT22;33316;52.298;9.056;2023-07-20T02:37:37;18.10;81.00
47590;DHT22;33316;52.298;9.056;2023-07-20T02:40:07;18.10;80.90
47590;DHT22;33316;52.298;9.056;2023-07-20T02:42:34;18.10;81.00
47590;DHT22;33316;52.298;9.056;2023-07-20T02:45:01;18.10;80.80
47590;DHT22;33316;52.298;9.056;2023-07-20T02:47:29;18.10;80.80
47590;DHT22;33316;52.298;9.056;2023-07-20T02:49:56;18.10;81.60
47590;DHT22;33316;52.298;9.056;2023-07-20T02:52:23;18.10;80.80
47590;DHT22;33316;52.298;9.056;2023-07-20T02:54:51;18.20;80.80
47590;DHT22;33316;52.298;9.056;2023-07-20T02:57:19;18.20;80.90
47590;DHT22;33316;52.298;9.056;2023-07-20T02:59:46;18.20;80.80
47590;DHT22;33316;52.298;9.056;2023-07-20T03:02:12;18.20;80.90
47590;DHT22;33316;52.298;9.056;2023-07-20T03:04:39;18.20;80.90
47590;DHT22;33316;52.298;9.056;2023-07-20T03:07:06;18.20;81.00
47590;DHT22;33316;52.298;9.056;2023-07-20T03:09:33;18.20;81.10
47590;DHT22;33316;52.298;9.056;2023-07-20T03:12:00;18.20;81.20
47590;DHT22;33316;52.298;9.056;2023-07-20T03:14:29;18.20;81.40
47590;DHT22;33316;52.298;9.056;2023-07-20T03:16:55;18.20;81.50
47590;DHT22;33316;52.298;9.056;2023-07-20T03:19:22;18.20;81.70
47590;DHT22;33316;52.298;9.056;2023-07-20T03:21:49;18.20;81.90
47590;DHT22;33316;52.298;9.056;2023-07-20T03:24:16;18.20;81.90
47590;DHT22;33316;52.298;9.056;2023-07-20T03:26:42;18.30;82.00
47590;DHT22;33316;52.298;9.056;2023-07-20T03:29:09;18.20;82.10
47590;DHT22;33316;52.298;9.056;2023-07-20T03:31:37;18.20;82.20
47590;DHT22;33316;52.298;9.056;2023-07-20T03:34:04;18.20;82.20
47590;DHT22;33316;52.298;9.056;2023-07-20T03:36:31;18.20;82.30
47590;DHT22;33316;52.298;9.056;2023-07-20T03:38:58;18.20;82.40
47590;DHT22;33316;52.298;9.056;2023-07-20T03:41:25;18.30;82.50
47590;DHT22;33316;52.298;9.056;2023-07-20T03:43:51;18.30;82.60
47590;DHT22;33316;52.298;9.056;2023-07-20T03:46:19;18.30;82.40
47590;DHT22;33316;52.298;9.056;2023-07-20T03:48:47;18.30;82.30
47590;DHT22;33316;52.298;9.056;2023-07-20T03:51:14;18.30;82.20
47590;DHT22;33316;52.298;9.056;2023-07-20T03:53:40;18.20;82.20
47590;DHT22;33316;52.298;9.056;2023-07-20T03:56:08;18.20;82.30
47590;DHT22;33316;52.298;9.056;2023-07-20T03:58:34;18.20;82.30
47590;DHT22;33316;52.298;9.056;2023-07-20T04:01:01;18.20;82.30
47590;DHT22;33316;52.298;9.056;2023-07-20T04:03:28;18.20;82.30
47590;DHT22;33316;52.298;9.056;2023-07-20T04:05:56;18.20;82.40
47590;DHT22;33316;52.298;9.056;2023-07-20T04:08:23;18.20;82.30
47590;DHT22;33316;52.298;9.056;2023-07-20T04:10:50;18.20;82.20
47590;DHT22;33316;52.298;9.056;2023-07-20T04:13:17;18.20;82.20
47590;DHT22;33316;52.298;9.056;2023-07-20T04:15:44;18.20;81.90
47590;DHT22;33316;52.298;9.056;2023-07-20T04:18:11;18.20;81.90
47590;DHT22;33316;52.298;9.056;2023-07-20T04:20:38;18.20;81.90
47590;DHT22;33316;52.298;9.056;2023-07-20T04:23:06;18.20;81.90
47590;DHT22;33316;52.298;9.056;2023-07-20T04:25:32;18.20;82.00
47590;DHT22;33316;52.298;9.056;2023-07-20T04:28:05;18.20;82.10
47590;DHT22;33316;52.298;9.056;2023-07-20T04:30:34;18.10;82.20
47590;DHT22;33316;52.298;9.056;2023-07-20T04:33:00;18.10;82.30
47590;DHT22;33316;52.298;9.056;2023-07-20T04:35:47;18.10;82.40
47590;DHT22;33316;52.298;9.056;2023-07-20T04:38:16;18.10;82.70
47590;DHT22;33316;52.298;9.056;2023-07-20T04:40:44;18.10;82.60
47590;DHT22;33316;52.298;9.056;2023-07-20T04:43:10;18.10;82.60
47590;DHT22;33316;52.298;9.056;2023-07-20T04:45:37;18.10;82.60
47590;DHT22;33316;52.298;9.056;2023-07-20T04:48:12;18.00;82.70
47590;DHT22;33316;52.298;9.056;2023-07-20T04:50:40;18.00;82.80
47590;DHT22;33316;52.298;9.056;2023-07-20T04:53:08;18.00;82.80
47590;DHT22;33316;52.298;9.056;2023-07-20T04:55:37;18.00;82.80
47590;DHT22;33316;52.298;9.056;2023-07-20T04:58:04;18.00;83.00
47590;DHT22;33316;52.298;9.056;2023-07-20T05:00:32;18.00;83.00
47590;DHT22;33316;52.298;9.056;2023-07-20T05:02:58;18.00;83.00
47590;DHT22;33316;52.298;9.056;2023-07-20T05:05:25;18.00;83.00
47590;DHT22;33316;52.298;9.056;2023-07-20T05:07:52;17.90;83.10
47590;DHT22;33316;52.298;9.056;2023-07-20T05:10:19;17.90;83.10
47590;DHT22;33316;52.298;9.056;2023-07-20T05:12:47;18.00;83.30
47590;DHT22;33316;52.298;9.056;2023-07-20T05:15:14;18.00;83.30
47590;DHT22;33316;52.298;9.056;2023-07-20T05:17:40;18.00;83.20
47590;DHT22;33316;52.298;9.056;2023-07-20T05:20:07;17.90;83.10
47590;DHT22;33316;52.298;9.056;2023-07-20T05:22:38;17.90;83.10
47590;DHT22;33316;52.298;9.056;2023-07-20T05:25:06;18.00;83.20
47590;DHT22;33316;52.298;9.056;2023-07-20T05:27:33;18.00;83.10
47590;DHT22;33316;52.298;9.056;2023-07-20T05:30:02;18.00;83.10
47590;DHT22;33316;52.298;9.056;2023-07-20T05:32:29;17.90;83.00
47590;DHT22;33316;52.298;9.056;2023-07-20T05:34:56;18.00;83.10
47590;DHT22;33316;52.298;9.056;2023-07-20T05:37:23;18.00;83.10
47590;DHT22;33316;52.298;9.056;2023-07-20T05:39:50;18.00;83.20
47590;DHT22;33316;52.298;9.056;2023-07-20T05:42:17;18.00;84.00
47590;DHT22;33316;52.298;9.056;2023-07-20T05:44:43;18.00;83.20
47590;DHT22;33316;52.298;9.056;2023-07-20T05:47:11;18.00;84.10
47590;DHT22;33316;52.298;9.056;2023-07-20T05:49:38;18.10;83.40
47590;DHT22;33316;52.298;9.056;2023-07-20T05:52:05;18.10;83.20
47590;DHT22;33316;52.298;9.056;2023-07-20T05:54:32;18.10;83.20
47590;DHT22;33316;52.298;9.056;2023-07-20T05:56:59;18.20;83.10
47590;DHT22;33316;52.298;9.056;2023-07-20T05:59:27;18.20;83.10
47590;DHT22;33316;52.298;9.056;2023-07-20T06:01:55;18.30;83.10
47590;DHT22;33316;52.298;9.056;2023-07-20T06:04:23;18.40;83.20
47590;DHT22;33316;52.298;9.056;2023-07-20T06:06:50;18.50;82.90
47590;DHT22;33316;52.298;9.056;2023-07-20T06:09:16;18.50;82.60
47590;DHT22;33316;52.298;9.056;2023-07-20T06:11:43;18.50;82.60
47590;DHT22;33316;52.298;9.056;2023-07-20T06:14:09;18.50;82.50
47590;DHT22;33316;52.298;9.056;2023-07-20T06:16:36;18.50;82.20
47590;DHT22;33316;52.298;9.056;2023-07-20T06:19:03;18.60;82.00
47590;DHT22;33316;52.298;9.056;2023-07-20T06:21:31;18.60;81.80
47590;DHT22;33316;52.298;9.056;2023-07-20T06:23:57;18.70;81.80
47590;DHT22;33316;52.298;9.056;2023-07-20T06:26:25;18.70;81.60
47590;DHT22;33316;52.298;9.056;2023-07-20T06:28:51;18.80;82.30
47590;DHT22;33316;52.298;9.056;2023-07-20T06:31:18;18.80;81.30
47590;DHT22;33316;52.298;9.056;2023-07-20T06:33:45;18.90;81.10
47590;DHT22;33316;52.298;9.056;2023-07-20T06:36:12;19.10;81.20
47590;DHT22;33316;52.298;9.056;2023-07-20T06:38:40;19.20;80.40
47590;DHT22;33316;52.298;9.056;2023-07-20T06:41:06;19.40;80.20
47590;DHT22;33316;52.298;9.056;2023-07-20T06:43:33;19.60;79.80
47590;DHT22;33316;52.298;9.056;2023-07-20T06:46:00;19.60;79.10
47590;DHT22;33316;52.298;9.056;2023-07-20T06:48:27;19.60;78.60
47590;DHT22;33316;52.298;9.056;2023-07-20T06:50:55;19.80;78.60
47590;DHT22;33316;52.298;9.056;2023-07-20T06:53:22;19.90;78.30
47590;DHT22;33316;52.298;9.056;2023-07-20T06:55:50;20.20;77.90
47590;DHT22;33316;52.298;9.056;2023-07-20T06:58:17;20.30;77.30
47590;DHT22;33316;52.298;9.056;2023-07-20T07:00:44;20.50;76.80
47590;DHT22;33316;52.298;9.056;2023-07-20T07:03:11;20.70;76.50
47590;DHT22;33316;52.298;9.056;2023-07-20T07:05:38;20.80;76.10
47590;DHT22;33316;52.298;9.056;2023-07-20T07:08:04;20.90;75.40
47590;DHT22;33316;52.298;9.056;2023-07-20T07:10:31;21.00;75.00
47590;DHT22;33316;52.298;9.056;2023-07-20T07:13:00;21.00;74.40
47590;DHT22;33316;52.298;9.056;2023-07-20T07:15:27;21.10;74.10
47590;DHT22;33316;52.298;9.056;2023-07-20T07:17:54;21.10;73.90
47590;DHT22;33316;52.298;9.056;2023-07-20T07:20:21;21.20;73.90
47590;DHT22;33316;52.298;9.056;2023-07-20T07:22:50;21.30;73.80
47590;DHT22;33316;52.298;9.056;2023-07-20T07:25:18;21.30;73.40
47590;DHT22;33316;52.298;9.056;2023-07-20T07:27:45;21.40;73.30
47590;DHT22;33316;52.298;9.056;2023-07-20T07:30:14;21.40;72.60
47590;DHT22;33316;52.298;9.056;2023-07-20T07:32:41;21.50;72.40
47590;DHT22;33316;52.298;9.056;2023-07-20T07:35:08;21.60;72.30
47590;DHT22;33316;52.298;9.056;2023-07-20T07:37:35;21.60;71.90
47590;DHT22;33316;52.298;9.056;2023-07-20T07:40:02;21.60;71.50
47590;DHT22;33316;52.298;9.056;2023-07-20T07:42:30;21.60;71.20
47590;DHT22;33316;52.298;9.056;2023-07-20T07:44:57;21.60;71.20
47590;DHT22;33316;52.298;9.056;2023-07-20T07:47:25;21.70;71.10
47590;DHT22;33316;52.298;9.056;2023-07-20T07:49:51;21.70;71.00
47590;DHT22;33316;52.298;9.056;2023-07-20T07:52:18;21.80;70.60
47590;DHT22;33316;52.298;9.056;2023-07-20T07:54:45;21.80;69.80
47590;DHT22;33316;52.298;9.056;2023-07-20T07:57:12;21.80;69.50
47590;DHT22;33316;52.298;9.056;2023-07-20T07:59:39;21.80;69.30
47590;DHT22;33316;52.298;9.056;2023-07-20T08:02:06;21.70;69.10
47590;DHT22;33316;52.298;9.056;2023-07-20T08:04:34;21.70;69.40
47590;DHT22;33316;52.298;9.056;2023-07-20T08:07:03;21.70;69.60
47590;DHT22;33316;52.298;9.056;2023-07-20T08:09:30;21.80;68.70
47590;DHT22;33316;52.298;9.056;2023-07-20T08:11:56;21.70;68.30
47590;DHT22;33316;52.298;9.056;2023-07-20T08:14:23;21.60;67.60
47590;DHT22;33316;52.298;9.056;2023-07-20T08:16:50;21.60;67.80
47590;DHT22;33316;52.298;9.056;2023-07-20T08:19:17;21.70;68.20
47590;DHT22;33316;52.298;9.056;2023-07-20T08:21:45;21.70;67.80
47590;DHT22;33316;52.298;9.056;2023-07-20T08:24:12;21.80;67.60
47590;DHT22;33316;52.298;9.056;2023-07-20T08:26:38;21.90;67.50
47590;DHT22;33316;52.298;9.056;2023-07-20T08:29:05;21.90;66.80
47590;DHT22;33316;52.298;9.056;2023-07-20T08:31:33;22.00;66.10
47590;DHT22;33316;52.298;9.056;2023-07-20T08:34:00;21.90;65.50
47590;DHT22;33316;52.298;9.056;2023-07-20T08:36:27;21.90;64.70
47590;DHT22;33316;52.298;9.056;2023-07-20T08:38:55;21.90;64.30
47590;DHT22;33316;52.298;9.056;2023-07-20T08:41:22;21.90;64.20
47590;DHT22;33316;52.298;9.056;2023-07-20T08:43:50;22.00;64.10
47590;DHT22;33316;52.298;9.056;2023-07-20T08:46:17;22.00;64.00
47590;DHT22;33316;52.298;9.056;2023-07-20T08:48:44;22.00;64.00
47590;DHT22;33316;52.298;9.056;2023-07-20T08:51:12;21.90;63.90
47590;DHT22;33316;52.298;9.056;2023-07-20T08:53:40;21.90;64.00
47590;DHT22;33316;52.298;9.056;2023-07-20T08:56:09;22.00;64.20
47590;DHT22;33316;52.298;9.056;2023-07-20T08:58:37;22.00;64.30
47590;DHT22;33316;52.298;9.056;2023-07-20T09:01:05;22.10;62.90
47590;DHT22;33316;52.298;9.056;2023-07-20T09:03:33;22.10;63.20
47590;DHT22;33316;52.298;9.056;2023-07-20T09:06:00;22.00;63.00
47590;DHT22;33316;52.298;9.056;2023-07-20T09:08:26;22.00;62.60
47590;DHT22;33316;52.298;9.056;2023-07-20T09:10:53;21.90;62.50
47590;DHT22;33316;52.298;9.056;2023-07-20T09:13:21;21.90;61.60
47590;DHT22;33316;52.298;9.056;2023-07-20T09:15:53;21.90;61.50
47590;DHT22;33316;52.298;9.056;2023-07-20T09:18:27;22.00;61.10
47590;DHT22;33316;52.298;9.056;2023-07-20T09:20:57;22.00;61.10
47590;DHT22;33316;52.298;9.056;2023-07-20T09:23:30;22.00;61.40
47590;DHT22;33316;52.298;9.056;2023-07-20T09:25:58;22.20;61.10
47590;DHT22;33316;52.298;9.056;2023-07-20T09:28:27;22.20;60.80
47590;DHT22;33316;52.298;9.056;2023-07-20T09:30:54;22.30;60.80
47590;DHT22;33316;52.298;9.056;2023-07-20T09:33:22;22.30;60.30
47590;DHT22;33316;52.298;9.056;2023-07-20T09:35:49;22.30;60.40
47590;DHT22;33316;52.298;9.056;2023-07-20T09:38:16;22.30;60.50
47590;DHT22;33316;52.298;9.056;2023-07-20T09:40:43;22.40;60.60
47590;DHT22;33316;52.298;9.056;2023-07-20T09:43:10;22.40;60.00
47590;DHT22;33316;52.298;9.056;2023-07-20T09:45:41;22.50;59.90
47590;DHT22;33316;52.298;9.056;2023-07-20T09:48:09;22.50;59.60
47590;DHT22;33316;52.298;9.056;2023-07-20T09:50:40;22.60;59.50
47590;DHT22;33316;52.298;9.056;2023-07-20T09:53:11;22.60;59.20
47590;DHT22;33316;52.298;9.056;2023-07-20T09:55:39;22.50;58.10
47590;DHT22;33316;52.298;9.056;2023-07-20T09:58:07;22.50;57.60
47590;DHT22;33316;52.298;9.056;2023-07-20T10:00:35;22.50;58.10
47590;DHT22;33316;52.298;9.056;2023-07-20T10:03:05;22.50;58.20
47590;DHT22;33316;52.298;9.056;2023-07-20T10:05:34;22.60;58.40
47590;DHT22;33316;52.298;9.056;2023-07-20T10:08:05;22.60;58.50
47590;DHT22;33316;52.298;9.056;2023-07-20T10:10:40;22.70;58.40
47590;DHT22;33316;52.298;9.056;2023-07-20T10:13:10;22.80;58.20
47590;DHT22;33316;52.298;9.056;2023-07-20T10:15:45;22.90;57.90
47590;DHT22;33316;52.298;9.056;2023-07-20T10:18:17;22.90;57.40
47590;DHT22;33316;52.298;9.056;2023-07-20T10:20:46;22.90;57.00
47590;DHT22;33316;52.298;9.056;2023-07-20T10:23:13;22.90;56.90
47590;DHT22;33316;52.298;9.056;2023-07-20T10:25:40;22.90;56.50
47590;DHT22;33316;52.298;9.056;2023-07-20T10:28:08;22.90;56.60
47590;DHT22;33316;52.298;9.056;2023-07-20T10:30:36;22.90;56.10
47590;DHT22;33316;52.298;9.056;2023-07-20T10:33:05;23.00;56.00
47590;DHT22;33316;52.298;9.056;2023-07-20T10:35:50;22.90;55.60
47590;DHT22;33316;52.298;9.056;2023-07-20T10:38:17;23.00;55.70
47590;DHT22;33316;52.298;9.056;2023-07-20T10:40:54;23.00;56.00
47590;DHT22;33316;52.298;9.056;2023-07-20T10:43:21;23.00;55.80
47590;DHT22;33316;52.298;9.056;2023-07-20T10:45:49;23.10;55.50
47590;DHT22;33316;52.298;9.056;2023-07-20T10:48:18;23.10;55.00
47590;DHT22;33316;52.298;9.056;2023-07-20T10:53:28;23.10;55.70
47590;DHT22;33316;52.298;9.056;2023-07-20T10:56:06;23.20;55.90
47590;DHT22;33316;52.298;9.056;2023-07-20T10:58:34;23.20;56.50
47590;DHT22;33316;52.298;9.056;2023-07-20T11:01:03;23.20;56.00
47590;DHT22;33316;52.298;9.056;2023-07-20T11:03:32;23.30;55.60
47590;DHT22;33316;52.298;9.056;2023-07-20T11:06:30;23.30;55.80
47590;DHT22;33316;52.298;9.056;2023-07-20T11:09:04;23.30;55.40
47590;DHT22;33316;52.298;9.056;2023-07-20T11:11:32;23.40;55.70
47590;DHT22;33316;52.298;9.056;2023-07-20T11:14:01;23.40;55.20
47590;DHT22;33316;52.298;9.056;2023-07-20T11:16:36;23.40;55.40
47590;DHT22;33316;52.298;9.056;2023-07-20T11:19:04;23.40;55.20
47590;DHT22;33316;52.298;9.056;2023-07-20T11:21:37;23.40;55.30
47590;DHT22;33316;52.298;9.056;2023-07-20T11:24:05;23.50;55.30
47590;DHT22;33316;52.298;9.056;2023-07-20T11:26:40;23.50;55.90
47590;DHT22;33316;52.298;9.056;2023-07-20T11:29:07;23.50;55.10
47590;DHT22;33316;52.298;9.056;2023-07-20T11:31:36;23.60;55.20
47590;DHT22;33316;52.298;9.056;2023-07-20T11:34:02;23.60;54.90
47590;DHT22;33316;52.298;9.056;2023-07-20T11:36:29;23.60;54.90
47590;DHT22;33316;52.298;9.056;2023-07-20T11:38:58;23.60;54.90
47590;DHT22;33316;52.298;9.056;2023-07-20T11:41:25;23.70;54.60
47590;DHT22;33316;52.298;9.056;2023-07-20T11:43:53;23.70;54.60
47590;DHT22;33316;52.298;9.056;2023-07-20T11:46:20;23.80;54.00
47590;DHT22;33316;52.298;9.056;2023-07-20T11:48:47;23.80;54.00
47590;DHT22;33316;52.298;9.056;2023-07-20T11:51:14;23.90;54.10
47590;DHT22;33316;52.298;9.056;2023-07-20T11:53:41;23.90;53.90
47590;DHT22;33316;52.298;9.056;2023-07-20T11:56:10;23.90;54.00
47590;DHT22;33316;52.298;9.056;2023-07-20T11:58:41;24.00;53.80
47590;DHT22;33316;52.298;9.056;2023-07-20T12:01:08;24.00;53.60
47590;DHT22;33316;52.298;9.056;2023-07-20T12:03:36;24.00;53.30
47590;DHT22;33316;52.298;9.056;2023-07-20T12:06:07;23.90;52.80
47590;DHT22;33316;52.298;9.056;2023-07-20T12:08:34;23.90;53.00
47590;DHT22;33316;52.298;9.056;2023-07-20T12:11:01;23.90;52.80
47590;DHT22;33316;52.298;9.056;2023-07-20T12:13:37;23.90;53.60
47590;DHT22;33316;52.298;9.056;2023-07-20T12:16:09;24.00;53.30
47590;DHT22;33316;52.298;9.056;2023-07-20T12:18:38;23.90;53.50
47590;DHT22;33316;52.298;9.056;2023-07-20T12:21:06;23.90;53.50
47590;DHT22;33316;52.298;9.056;2023-07-20T12:23:37;23.90;53.70
47590;DHT22;33316;52.298;9.056;2023-07-20T12:26:06;23.90;53.50
47590;DHT22;33316;52.298;9.056;2023-07-20T12:28:39;23.80;53.40
47590;DHT22;33316;52.298;9.056;2023-07-20T12:31:07;23.80;53.70
47590;DHT22;33316;52.298;9.056;2023-07-20T12:33:35;23.80;53.80
47590;DHT22;33316;52.298;9.056;2023-07-20T12:36:02;23.80;53.70
47590;DHT22;33316;52.298;9.056;2023-07-20T12:38:29;23.80;53.80
47590;DHT22;33316;52.298;9.056;2023-07-20T12:40:57;23.80;53.50
47590;DHT22;33316;52.298;9.056;2023-07-20T12:43:25;23.80;53.60
47590;DHT22;33316;52.298;9.056;2023-07-20T12:45:54;23.80;53.70
47590;DHT22;33316;52.298;9.056;2023-07-20T12:48:20;23.80;53.20
47590;DHT22;33316;52.298;9.056;2023-07-20T12:50:47;23.70;52.90
47590;DHT22;33316;52.298;9.056;2023-07-20T12:53:15;23.70;52.60
47590;DHT22;33316;52.298;9.056;2023-07-20T12:55:41;23.60;52.70
47590;DHT22;33316;52.298;9.056;2023-07-20T12:58:10;23.60;52.70
47590;DHT22;33316;52.298;9.056;2023-07-20T13:00:36;23.60;52.60
47590;DHT22;33316;52.298;9.056;2023-07-20T13:03:05;23.60;53.10
47590;DHT22;33316;52.298;9.056;2023-07-20T13:05:32;23.60;53.80
47590;DHT22;33316;52.298;9.056;2023-07-20T13:08:00;23.50;53.30
47590;DHT22;33316;52.298;9.056;2023-07-20T13:10:27;23.50;53.00
47590;DHT22;33316;52.298;9.056;2023-07-20T13:12:55;23.50;52.90
47590;DHT22;33316;52.298;9.056;2023-07-20T13:15:28;23.40;52.20
47590;DHT22;33316;52.298;9.056;2023-07-20T13:17:56;23.40;52.30
47590;DHT22;33316;52.298;9.056;2023-07-20T13:20:26;23.40;52.30
47590;DHT22;33316;52.298;9.056;2023-07-20T13:22:53;23.30;51.40
47590;DHT22;33316;52.298;9.056;2023-07-20T13:25:20;23.30;51.30
47590;DHT22;33316;52.298;9.056;2023-07-20T13:27:47;23.30;51.70
47590;DHT22;33316;52.298;9.056;2023-07-20T13:30:14;23.30;52.20
47590;DHT22;33316;52.298;9.056;2023-07-20T13:32:42;23.40;52.50
47590;DHT22;33316;52.298;9.056;2023-07-20T13:35:09;23.40;52.40
47590;DHT22;33316;52.298;9.056;2023-07-20T13:37:37;23.40;52.70
47590;DHT22;33316;52.298;9.056;2023-07-20T13:40:05;23.40;52.20
47590;DHT22;33316;52.298;9.056;2023-07-20T13:42:34;23.40;50.90
47590;DHT22;33316;52.298;9.056;2023-07-20T13:45:01;23.50;49.80
47590;DHT22;33316;52.298;9.056;2023-07-20T13:47:28;23.40;49.90
47590;DHT22;33316;52.298;9.056;2023-07-20T13:49:55;23.50;50.60
47590;DHT22;33316;52.298;9.056;2023-07-20T13:52:22;23.50;50.90
47590;DHT22;33316;52.298;9.056;2023-07-20T13:54:50;23.60;51.00
47590;DHT22;33316;52.298;9.056;2023-07-20T13:57:17;23.60;51.00
47590;DHT22;33316;52.298;9.056;2023-07-20T13:59:44;23.70;50.30
47590;DHT22;33316;52.298;9.056;2023-07-20T14:02:11;23.70;50.30
47590;DHT22;33316;52.298;9.056;2023-07-20T14:04:38;23.70;50.40
47590;DHT22;33316;52.298;9.056;2023-07-20T14:07:05;23.70;50.30
47590;DHT22;33316;52.298;9.056;2023-07-20T14:09:32;23.70;50.30
47590;DHT22;33316;52.298;9.056;2023-07-20T14:12:01;23.80;50.30
47590;DHT22;33316;52.298;9.056;2023-07-20T14:14:27;23.80;49.80
47590;DHT22;33316;52.298;9.056;2023-07-20T14:16:54;23.80;49.70
47590;DHT22;33316;52.298;9.056;2023-07-20T14:19:21;23.80;50.00
47590;DHT22;33316;52.298;9.056;2023-07-20T14:21:48;23.90;50.30
47590;DHT22;33316;52.298;9.056;2023-07-20T14:24:15;23.90;50.40
47590;DHT22;33316;52.298;9.056;2023-07-20T14:26:42;23.90;50.50
47590;DHT22;33316;52.298;9.056;2023-07-20T14:29:10;24.00;50.50
47590;DHT22;33316;52.298;9.056;2023-07-20T14:31:37;23.90;49.40
47590;DHT22;33316;52.298;9.056;2023-07-20T14:34:03;23.80;49.10
47590;DHT22;33316;52.298;9.056;2023-07-20T14:36:30;23.80;49.30
47590;DHT22;33316;52.298;9.056;2023-07-20T14:38:57;23.80;49.50
47590;DHT22;33316;52.298;9.056;2023-07-20T14:41:24;23.70;49.00
47590;DHT22;33316;52.298;9.056;2023-07-20T14:43:52;23.70;49.40
47590;DHT22;33316;52.298;9.056;2023-07-20T14:46:20;23.60;49.60
47590;DHT22;33316;52.298;9.056;2023-07-20T14:48:47;23.60;49.90
47590;DHT22;33316;52.298;9.056;2023-07-20T14:51:14;23.60;50.60
47590;DHT22;33316;52.298;9.056;2023-07-20T14:53:41;23.60;50.20
47590;DHT22;33316;52.298;9.056;2023-07-20T14:56:07;23.50;50.30
47590;DHT22;33316;52.298;9.056;2023-07-20T14:58:34;23.50;50.60
47590;DHT22;33316;52.298;9.056;2023-07-20T15:01:01;23.40;50.60
47590;DHT22;33316;52.298;9.056;2023-07-20T15:03:29;23.30;50.90
47590;DHT22;33316;52.298;9.056;2023-07-20T15:05:57;23.30;51.00
47590;DHT22;33316;52.298;9.056;2023-07-20T15:08:24;23.30;51.40
47590;DHT22;33316;52.298;9.056;2023-07-20T15:10:50;23.20;51.80
47590;DHT22;33316;52.298;9.056;2023-07-20T15:13:17;23.20;51.90
47590;DHT22;33316;52.298;9.056;2023-07-20T15:15:47;23.20;52.00
47590;DHT22;33316;52.298;9.056;2023-07-20T15:18:13;23.20;52.00
47590;DHT22;33316;52.298;9.056;2023-07-20T15:20:44;23.30;52.20
47590;DHT22;33316;52.298;9.056;2023-07-20T15:23:11;23.30;52.50
47590;DHT22;33316;52.298;9.056;2023-07-20T15:25:38;23.20;52.50
47590;DHT22;33316;52.298;9.056;2023-07-20T15:28:06;23.30;52.80
47590;DHT22;33316;52.298;9.056;2023-07-20T15:30:33;23.30;52.90
47590;DHT22;33316;52.298;9.056;2023-07-20T15:33:03;23.30;53.00
47590;DHT22;33316;52.298;9.056;2023-07-20T15:35:29;23.30;53.10
47590;DHT22;33316;52.298;9.056;2023-07-20T15:37:59;23.30;53.30
47590;DHT22;33316;52.298;9.056;2023-07-20T15:40:26;23.30;53.30